Ulisse Primo — INLN — position and weather

sailwx.info

Track history (hours):
 
Tides and Currents Weather Stations Pressure Air Temp Water Temp Dewpoint Dewpoint Depression Visibility Wind Speed Wind Dir Waves Ship Positions

Ulisse Primo

Last reported at 2016-May-06 21:33 UTC. Time now 2016-May-06 22:28 UTC.
Position N 45°13' E 012°16'.

Length 50 m.

Type: Other ship. MMSI: 247033000.

Date/timePositionNaut miles runAvg speedWind from/ knotsBaromVisibWave heightAir tempDewpointWater temp
2016-May-06 21:33N 45°13' E 012°16'0 0.0
2016-May-06 20:33N 45°13' E 012°16'0 0.0
2016-May-06 19:33N 45°13' E 012°16'1 0.6
2016-May-06 18:33N 45°12' E 012°16'0 0.0
2016-May-06 17:33N 45°12' E 012°16'6 5.8
2016-May-06 16:33N 45°17' E 012°20'3 2.9
2016-May-06 15:33N 45°20' E 012°20'0 0.0
2016-May-06 14:33N 45°20' E 012°20'0 0.4
2016-May-06 13:33N 45°20' E 012°20'0 0.0
2016-May-06 12:33N 45°20' E 012°20'0 0.0
2016-May-06 11:33N 45°20' E 012°20'0 0.4
2016-May-06 10:33N 45°20' E 012°20'0 0.0
2016-May-06 09:33N 45°20' E 012°20'0 0.3
2016-May-06 08:33N 45°20' E 012°20'1 0.7
2016-May-06 07:33N 45°20' E 012°19'1 0.6
2016-May-06 06:33N 45°21' E 012°19'0 0.0
2016-May-06 05:33N 45°21' E 012°19'0 0.0
2016-May-06 04:33N 45°21' E 012°19'0 0.0
2016-May-06 03:33N 45°21' E 012°19'0 0.0
2016-May-06 02:33N 45°21' E 012°19'0 0.0
2016-May-06 01:33N 45°21' E 012°19'0 0.0
2016-May-06 00:33N 45°21' E 012°19'0 0.0
2016-May-05 23:33N 45°21' E 012°19'0 0.0
2016-May-05 22:33N 45°21' E 012°19'0 0.0
2016-May-05 21:33N 45°21' E 012°19'0 0.0
2016-May-05 20:33N 45°21' E 012°19'0 0.0
2016-May-05 19:33N 45°21' E 012°19'0 0.0
2016-May-05 18:33N 45°21' E 012°19'0 0.0
2016-May-05 17:33N 45°21' E 012°19'0 0.0
2016-May-05 16:33N 45°21' E 012°19'0 0.0
2016-May-05 15:33N 45°21' E 012°19'0 0.0
2016-May-05 14:33N 45°21' E 012°19'1 0.9
2016-May-05 13:33N 45°20' E 012°19'0 0.0
2016-May-05 12:33N 45°20' E 012°19'0 0.2
2016-May-05 11:33N 45°20' E 012°20'0 0.0
2016-May-05 10:33N 45°20' E 012°20'0 0.0
2016-May-05 09:33N 45°20' E 012°20'0 0.0
2016-May-05 08:33N 45°20' E 012°20'0 0.0
2016-May-05 07:33N 45°20' E 012°20'2 2.4
2016-May-05 06:33N 45°18' E 012°20'6 0.5
2016-May-04 18:34N 45°12' E 012°16'0 0.0
2016-May-04 17:33N 45°12' E 012°16'2 1.5
2016-May-04 16:34N 45°14' E 012°17'7 6.8
2016-May-04 15:34N 45°20' E 012°20'0 0.3
2016-May-04 14:34N 45°20' E 012°20'0 0.0
2016-May-04 13:33N 45°20' E 012°20'0 0.2
2016-May-04 12:33N 45°20' E 012°19'0 0.0
2016-May-04 11:33N 45°20' E 012°19'0 0.0
2016-May-04 10:34N 45°20' E 012°19'0 0.2
2016-May-04 09:34N 45°20' E 012°20'0 0.0
2016-May-04 08:34N 45°20' E 012°20'0 0.0
2016-May-04 07:34N 45°20' E 012°20'0 0.3
2016-May-04 06:34N 45°20' E 012°19'1 0.8
2016-May-04 05:34N 45°21' E 012°19'0 0.0
2016-May-04 04:33N 45°21' E 012°19'0 0.0
2016-May-04 03:34N 45°21' E 012°19'0 0.0
2016-May-04 02:34N 45°21' E 012°19'0 0.0
2016-May-04 01:34N 45°21' E 012°19'0 0.0
2016-May-04 00:34N 45°21' E 012°19'0 0.0
2016-May-03 23:33N 45°21' E 012°19'0 0.0
2016-May-03 22:34N 45°21' E 012°19'0 0.0
2016-May-03 21:34N 45°21' E 012°19'0 0.0
2016-May-03 20:34N 45°21' E 012°19'0 0.0
2016-May-03 19:34N 45°21' E 012°19'0 0.0
2016-May-03 18:34N 45°21' E 012°19'0 0.0
2016-May-03 17:33N 45°21' E 012°19'0 0.0
2016-May-03 16:34N 45°21' E 012°19'0 0.0
2016-May-03 15:34N 45°21' E 012°19'0 0.0
2016-May-03 14:33N 45°21' E 012°19'1 1.0
2016-May-03 13:34N 45°20' E 012°20'0 0.0
2016-May-03 12:34N 45°20' E 012°20'0 0.1
2016-May-03 11:34N 45°20' E 012°20'0 0.1
2016-May-03 10:33N 45°20' E 012°20'0 0.0
2016-May-03 09:34N 45°20' E 012°20'0 0.2
2016-May-03 08:34N 45°20' E 012°20'0 0.0
2016-May-03 07:33N 45°20' E 012°20'0 0.0
2016-May-03 06:33N 45°20' E 012°20'1 1.0
2016-May-03 05:33N 45°21' E 012°19'0 0.0
2016-May-03 04:34N 45°21' E 012°19'0 0.0
2016-May-03 03:34N 45°21' E 012°19'0 0.0
2016-May-03 02:33N 45°21' E 012°19'0 0.0
2016-May-03 01:34N 45°21' E 012°19'0 0.0
2016-May-03 00:34N 45°21' E 012°19'0 0.0
2016-May-02 23:34N 45°21' E 012°19'0 0.0
2016-May-02 22:33N 45°21' E 012°19'0 0.0
2016-May-02 21:34N 45°21' E 012°19'0 0.0
2016-May-02 20:33N 45°21' E 012°19'0 0.0
2016-May-02 19:33N 45°21' E 012°19'0 0.0
2016-May-02 18:33N 45°21' E 012°19'0 0.0
2016-May-02 17:33N 45°21' E 012°19'0 0.0
2016-May-02 16:34N 45°21' E 012°19'0 0.0
2016-May-02 15:33N 45°21' E 012°19'0 0.0
2016-May-02 14:33N 45°21' E 012°19'1 1.0
2016-May-02 13:34N 45°20' E 012°20'0 0.0
2016-May-02 12:34N 45°20' E 012°20'0 0.0
2016-May-02 11:33N 45°20' E 012°20'0 0.0
2016-May-02 10:34N 45°20' E 012°20'0 0.1
2016-May-02 09:33N 45°20' E 012°20'1 1.0
2016-May-02 08:34N 45°20' E 012°21'1 0.9
2016-May-02 07:34N 45°20' E 012°20'0 0.0
2016-May-02 06:34N 45°20' E 012°20'0 0.0
2016-May-02 05:33N 45°20' E 012°20'  
2016-Apr-29 14:22N 45°21' E 012°19'1 1.7
2016-Apr-29 13:33N 45°20' E 012°20'0 0.3
2016-Apr-29 12:33N 45°20' E 012°20'1 0.6
2016-Apr-29 11:33N 45°20' E 012°20'0 0.0
2016-Apr-29 10:33N 45°20' E 012°20'0 0.0
2016-Apr-29 09:33N 45°20' E 012°20'0 0.0
2016-Apr-29 08:33N 45°20' E 012°20'0 0.0
2016-Apr-29 07:33N 45°20' E 012°20'1 0.6
2016-Apr-29 06:33N 45°20' E 012°19'1 0.5
2016-Apr-29 05:33N 45°21' E 012°19'0 0.0
2016-Apr-29 04:33N 45°21' E 012°19'0 0.0
2016-Apr-29 03:33N 45°21' E 012°19'0 0.0
2016-Apr-29 02:32N 45°21' E 012°19'0 0.0
2016-Apr-29 01:33N 45°21' E 012°19'0 0.0
2016-Apr-29 00:29N 45°21' E 012°19'0 0.0
2016-Apr-28 23:33N 45°21' E 012°19'0 0.0
2016-Apr-28 22:33N 45°21' E 012°19'0 0.0
2016-Apr-28 21:33N 45°21' E 012°19'0 0.0
2016-Apr-28 20:33N 45°21' E 012°19'0 0.0
2016-Apr-28 19:33N 45°21' E 012°19'0 0.0
2016-Apr-28 18:33N 45°21' E 012°19'0 0.0
2016-Apr-28 17:33N 45°21' E 012°19'0 0.0
2016-Apr-28 16:33N 45°21' E 012°19'0 0.0
2016-Apr-28 15:33N 45°21' E 012°19'0 0.0
2016-Apr-28 14:33N 45°21' E 012°19'0 0.0
2016-Apr-28 13:33N 45°21' E 012°19'0 0.0
2016-Apr-28 12:33N 45°21' E 012°19'0 0.0
2016-Apr-28 11:33N 45°21' E 012°19'0 0.0
2016-Apr-28 10:33N 45°21' E 012°19'0 0.0
2016-Apr-28 09:33N 45°21' E 012°19'0 0.0
2016-Apr-28 08:32N 45°21' E 012°19'0 0.0
2016-Apr-28 07:32N 45°21' E 012°19'0 0.0
2016-Apr-28 06:32N 45°21' E 012°19'0 0.0
2016-Apr-28 05:33N 45°21' E 012°19'0 0.0
2016-Apr-28 04:33N 45°21' E 012°19'0 0.0
2016-Apr-28 03:33N 45°21' E 012°19'0 0.0
2016-Apr-28 02:33N 45°21' E 012°19'0 0.0
2016-Apr-28 01:33N 45°21' E 012°19'0 0.0
2016-Apr-28 00:33N 45°21' E 012°19'0 0.0
2016-Apr-27 23:33N 45°21' E 012°19'0 0.0
2016-Apr-27 22:33N 45°21' E 012°19'0 0.0
2016-Apr-27 21:33N 45°21' E 012°19'0 0.0
2016-Apr-27 20:33N 45°21' E 012°19'0 0.0
2016-Apr-27 19:32N 45°21' E 012°19'0 0.0
2016-Apr-27 18:32N 45°21' E 012°19'0 0.0
2016-Apr-27 17:32N 45°21' E 012°19'0 0.0
2016-Apr-27 16:32N 45°21' E 012°19'0 0.0
2016-Apr-27 15:33N 45°21' E 012°19'0 0.0
2016-Apr-27 14:33N 45°21' E 012°19'0 0.0
2016-Apr-27 13:33N 45°21' E 012°19'0 0.0
2016-Apr-27 12:33N 45°21' E 012°19'0 0.0
2016-Apr-27 11:33N 45°21' E 012°18'0 0.0
2016-Apr-27 10:33N 45°21' E 012°18'0 0.0
2016-Apr-27 09:33N 45°21' E 012°18'0 0.4
2016-Apr-27 08:33N 45°20' E 012°18'0 0.4
2016-Apr-27 07:33N 45°21' E 012°18'0 0.0
2016-Apr-27 06:33N 45°21' E 012°18'0 0.0
2016-Apr-27 05:33N 45°21' E 012°18'3 2.9
2016-Apr-27 04:33N 45°18' E 012°20'6 5.6
2016-Apr-27 03:33N 45°13' E 012°16'1 1.1
2016-Apr-27 02:33N 45°12' E 012°16'0 0.0
2016-Apr-27 01:33N 45°12' E 012°16'0 0.0
2016-Apr-27 00:33N 45°12' E 012°16'0 0.0
2016-Apr-26 23:33N 45°12' E 012°16'0 0.0
2016-Apr-26 22:33N 45°12' E 012°16'0 0.0
2016-Apr-26 21:33N 45°12' E 012°16'  
Track history (hours):
 
Tides and Currents Weather Stations Pressure Air Temp Water Temp Dewpoint Dewpoint Depression Visibility Wind Speed Wind Dir Waves Ship Positions

Ulisse Primo

Last reported at 2016-May-06 21:33 UTC. Time now 2016-May-06 22:28 UTC.
Position N 45°13' E 012°16'.

Length 50 m.

Type: Other ship. MMSI: 247033000.

Date/timePositionNaut miles runAvg speedWind from/ knotsBaromVisibWave heightAir tempDewpointWater temp
2016-May-06 21:33N 45°13' E 012°16'0 0.0
2016-May-06 20:33N 45°13' E 012°16'0 0.0
2016-May-06 19:33N 45°13' E 012°16'1 0.6
2016-May-06 18:33N 45°12' E 012°16'0 0.0
2016-May-06 17:33N 45°12' E 012°16'6 5.8
2016-May-06 16:33N 45°17' E 012°20'3 2.9
2016-May-06 15:33N 45°20' E 012°20'0 0.0
2016-May-06 14:33N 45°20' E 012°20'0 0.4
2016-May-06 13:33N 45°20' E 012°20'0 0.0
2016-May-06 12:33N 45°20' E 012°20'0 0.0
2016-May-06 11:33N 45°20' E 012°20'0 0.4
2016-May-06 10:33N 45°20' E 012°20'0 0.0
2016-May-06 09:33N 45°20' E 012°20'0 0.3
2016-May-06 08:33N 45°20' E 012°20'1 0.7
2016-May-06 07:33N 45°20' E 012°19'1 0.6
2016-May-06 06:33N 45°21' E 012°19'0 0.0
2016-May-06 05:33N 45°21' E 012°19'0 0.0
2016-May-06 04:33N 45°21' E 012°19'0 0.0
2016-May-06 03:33N 45°21' E 012°19'0 0.0
2016-May-06 02:33N 45°21' E 012°19'0 0.0
2016-May-06 01:33N 45°21' E 012°19'0 0.0
2016-May-06 00:33N 45°21' E 012°19'0 0.0
2016-May-05 23:33N 45°21' E 012°19'0 0.0
2016-May-05 22:33N 45°21' E 012°19'0 0.0
2016-May-05 21:33N 45°21' E 012°19'0 0.0
2016-May-05 20:33N 45°21' E 012°19'0 0.0
2016-May-05 19:33N 45°21' E 012°19'0 0.0
2016-May-05 18:33N 45°21' E 012°19'0 0.0
2016-May-05 17:33N 45°21' E 012°19'0 0.0
2016-May-05 16:33N 45°21' E 012°19'0 0.0
2016-May-05 15:33N 45°21' E 012°19'0 0.0
2016-May-05 14:33N 45°21' E 012°19'1 0.9
2016-May-05 13:33N 45°20' E 012°19'0 0.0
2016-May-05 12:33N 45°20' E 012°19'0 0.2
2016-May-05 11:33N 45°20' E 012°20'0 0.0
2016-May-05 10:33N 45°20' E 012°20'0 0.0
2016-May-05 09:33N 45°20' E 012°20'0 0.0
2016-May-05 08:33N 45°20' E 012°20'0 0.0
2016-May-05 07:33N 45°20' E 012°20'2 2.4
2016-May-05 06:33N 45°18' E 012°20'6 0.5
2016-May-04 18:34N 45°12' E 012°16'0 0.0
2016-May-04 17:33N 45°12' E 012°16'2 1.5
2016-May-04 16:34N 45°14' E 012°17'7 6.8
2016-May-04 15:34N 45°20' E 012°20'0 0.3
2016-May-04 14:34N 45°20' E 012°20'0 0.0
2016-May-04 13:33N 45°20' E 012°20'0 0.2
2016-May-04 12:33N 45°20' E 012°19'0 0.0
2016-May-04 11:33N 45°20' E 012°19'0 0.0
2016-May-04 10:34N 45°20' E 012°19'0 0.2
2016-May-04 09:34N 45°20' E 012°20'0 0.0
2016-May-04 08:34N 45°20' E 012°20'0 0.0
2016-May-04 07:34N 45°20' E 012°20'0 0.3
2016-May-04 06:34N 45°20' E 012°19'1 0.8
2016-May-04 05:34N 45°21' E 012°19'0 0.0
2016-May-04 04:33N 45°21' E 012°19'0 0.0
2016-May-04 03:34N 45°21' E 012°19'0 0.0
2016-May-04 02:34N 45°21' E 012°19'0 0.0
2016-May-04 01:34N 45°21' E 012°19'0 0.0
2016-May-04 00:34N 45°21' E 012°19'0 0.0
2016-May-03 23:33N 45°21' E 012°19'0 0.0
2016-May-03 22:34N 45°21' E 012°19'0 0.0
2016-May-03 21:34N 45°21' E 012°19'0 0.0
2016-May-03 20:34N 45°21' E 012°19'0 0.0
2016-May-03 19:34N 45°21' E 012°19'0 0.0
2016-May-03 18:34N 45°21' E 012°19'0 0.0
2016-May-03 17:33N 45°21' E 012°19'0 0.0
2016-May-03 16:34N 45°21' E 012°19'0 0.0
2016-May-03 15:34N 45°21' E 012°19'0 0.0
2016-May-03 14:33N 45°21' E 012°19'1 1.0
2016-May-03 13:34N 45°20' E 012°20'0 0.0
2016-May-03 12:34N 45°20' E 012°20'0 0.1
2016-May-03 11:34N 45°20' E 012°20'0 0.1
2016-May-03 10:33N 45°20' E 012°20'0 0.0
2016-May-03 09:34N 45°20' E 012°20'0 0.2
2016-May-03 08:34N 45°20' E 012°20'0 0.0
2016-May-03 07:33N 45°20' E 012°20'0 0.0
2016-May-03 06:33N 45°20' E 012°20'1 1.0
2016-May-03 05:33N 45°21' E 012°19'0 0.0
2016-May-03 04:34N 45°21' E 012°19'0 0.0
2016-May-03 03:34N 45°21' E 012°19'0 0.0
2016-May-03 02:33N 45°21' E 012°19'0 0.0
2016-May-03 01:34N 45°21' E 012°19'0 0.0
2016-May-03 00:34N 45°21' E 012°19'0 0.0
2016-May-02 23:34N 45°21' E 012°19'0 0.0
2016-May-02 22:33N 45°21' E 012°19'0 0.0
2016-May-02 21:34N 45°21' E 012°19'0 0.0
2016-May-02 20:33N 45°21' E 012°19'0 0.0
2016-May-02 19:33N 45°21' E 012°19'0 0.0
2016-May-02 18:33N 45°21' E 012°19'0 0.0
2016-May-02 17:33N 45°21' E 012°19'0 0.0
2016-May-02 16:34N 45°21' E 012°19'0 0.0
2016-May-02 15:33N 45°21' E 012°19'0 0.0
2016-May-02 14:33N 45°21' E 012°19'1 1.0
2016-May-02 13:34N 45°20' E 012°20'0 0.0
2016-May-02 12:34N 45°20' E 012°20'0 0.0
2016-May-02 11:33N 45°20' E 012°20'0 0.0
2016-May-02 10:34N 45°20' E 012°20'0 0.1
2016-May-02 09:33N 45°20' E 012°20'1 1.0
2016-May-02 08:34N 45°20' E 012°21'1 0.9
2016-May-02 07:34N 45°20' E 012°20'0 0.0
2016-May-02 06:34N 45°20' E 012°20'0 0.0
2016-May-02 05:33N 45°20' E 012°20'  
2016-Apr-29 14:22N 45°21' E 012°19'1 1.7
2016-Apr-29 13:33N 45°20' E 012°20'0 0.3
2016-Apr-29 12:33N 45°20' E 012°20'1 0.6
2016-Apr-29 11:33N 45°20' E 012°20'0 0.0
2016-Apr-29 10:33N 45°20' E 012°20'0 0.0
2016-Apr-29 09:33N 45°20' E 012°20'0 0.0
2016-Apr-29 08:33N 45°20' E 012°20'0 0.0
2016-Apr-29 07:33N 45°20' E 012°20'1 0.6
2016-Apr-29 06:33N 45°20' E 012°19'1 0.5
2016-Apr-29 05:33N 45°21' E 012°19'0 0.0
2016-Apr-29 04:33N 45°21' E 012°19'0 0.0
2016-Apr-29 03:33N 45°21' E 012°19'0 0.0
2016-Apr-29 02:32N 45°21' E 012°19'0 0.0
2016-Apr-29 01:33N 45°21' E 012°19'0 0.0
2016-Apr-29 00:29N 45°21' E 012°19'0 0.0
2016-Apr-28 23:33N 45°21' E 012°19'0 0.0
2016-Apr-28 22:33N 45°21' E 012°19'0 0.0
2016-Apr-28 21:33N 45°21' E 012°19'0 0.0
2016-Apr-28 20:33N 45°21' E 012°19'0 0.0
2016-Apr-28 19:33N 45°21' E 012°19'0 0.0
2016-Apr-28 18:33N 45°21' E 012°19'0 0.0
2016-Apr-28 17:33N 45°21' E 012°19'0 0.0
2016-Apr-28 16:33N 45°21' E 012°19'0 0.0
2016-Apr-28 15:33N 45°21' E 012°19'0 0.0
2016-Apr-28 14:33N 45°21' E 012°19'0 0.0
2016-Apr-28 13:33N 45°21' E 012°19'0 0.0
2016-Apr-28 12:33N 45°21' E 012°19'0 0.0
2016-Apr-28 11:33N 45°21' E 012°19'0 0.0
2016-Apr-28 10:33N 45°21' E 012°19'0 0.0
2016-Apr-28 09:33N 45°21' E 012°19'0 0.0
2016-Apr-28 08:32N 45°21' E 012°19'0 0.0
2016-Apr-28 07:32N 45°21' E 012°19'0 0.0
2016-Apr-28 06:32N 45°21' E 012°19'0 0.0
2016-Apr-28 05:33N 45°21' E 012°19'0 0.0
2016-Apr-28 04:33N 45°21' E 012°19'0 0.0
2016-Apr-28 03:33N 45°21' E 012°19'0 0.0
2016-Apr-28 02:33N 45°21' E 012°19'0 0.0
2016-Apr-28 01:33N 45°21' E 012°19'0 0.0
2016-Apr-28 00:33N 45°21' E 012°19'0 0.0
2016-Apr-27 23:33N 45°21' E 012°19'0 0.0
2016-Apr-27 22:33N 45°21' E 012°19'0 0.0
2016-Apr-27 21:33N 45°21' E 012°19'0 0.0
2016-Apr-27 20:33N 45°21' E 012°19'0 0.0
2016-Apr-27 19:32N 45°21' E 012°19'0 0.0
2016-Apr-27 18:32N 45°21' E 012°19'0 0.0
2016-Apr-27 17:32N 45°21' E 012°19'0 0.0
2016-Apr-27 16:32N 45°21' E 012°19'0 0.0
2016-Apr-27 15:33N 45°21' E 012°19'0 0.0
2016-Apr-27 14:33N 45°21' E 012°19'0 0.0
2016-Apr-27 13:33N 45°21' E 012°19'0 0.0
2016-Apr-27 12:33N 45°21' E 012°19'0 0.0
2016-Apr-27 11:33N 45°21' E 012°18'0 0.0
2016-Apr-27 10:33N 45°21' E 012°18'0 0.0
2016-Apr-27 09:33N 45°21' E 012°18'0 0.4
2016-Apr-27 08:33N 45°20' E 012°18'0 0.4
2016-Apr-27 07:33N 45°21' E 012°18'0 0.0
2016-Apr-27 06:33N 45°21' E 012°18'0 0.0
2016-Apr-27 05:33N 45°21' E 012°18'3 2.9
2016-Apr-27 04:33N 45°18' E 012°20'6 5.6
2016-Apr-27 03:33N 45°13' E 012°16'1 1.1
2016-Apr-27 02:33N 45°12' E 012°16'0 0.0
2016-Apr-27 01:33N 45°12' E 012°16'0 0.0
2016-Apr-27 00:33N 45°12' E 012°16'0 0.0
2016-Apr-26 23:33N 45°12' E 012°16'0 0.0
2016-Apr-26 22:33N 45°12' E 012°16'0 0.0
2016-Apr-26 21:33N 45°12' E 012°16'  

Dump ship's entire track history